createdAt,value
2018-05-18T00:01:44.128Z,79.70
2018-05-18T00:04:47.552Z,79.82
2018-05-18T00:07:50.861Z,79.83
2018-05-18T00:10:54.182Z,79.86
2018-05-18T00:13:57.490Z,79.82
2018-05-18T00:17:00.806Z,79.94
2018-05-18T00:20:04.888Z,80.09
2018-05-18T00:23:08.190Z,80.33
2018-05-18T00:26:11.513Z,80.48
2018-05-18T00:29:15.580Z,80.31
2018-05-18T00:32:18.897Z,80.34
2018-05-18T00:35:22.205Z,80.33
2018-05-18T00:38:26.284Z,80.35
2018-05-18T00:41:29.593Z,80.42
2018-05-18T00:44:32.921Z,80.49
2018-05-18T00:47:36.989Z,80.63
2018-05-18T00:50:40.317Z,80.79
2018-05-18T00:53:43.617Z,80.85
2018-05-18T00:56:47.715Z,80.72
2018-05-18T00:59:51.017Z,80.70
2018-05-18T01:02:54.325Z,80.81
2018-05-18T01:05:58.406Z,80.78
2018-05-18T01:09:01.711Z,80.77
2018-05-18T01:12:05.026Z,81.00
2018-05-18T01:15:08.329Z,80.93
2018-05-18T01:18:12.430Z,80.96
2018-05-18T01:21:15.728Z,80.94
2018-05-18T01:24:19.040Z,80.86
2018-05-18T01:27:22.345Z,80.93
2018-05-18T01:30:26.505Z,80.88
2018-05-18T01:33:29.738Z,80.99
2018-05-18T01:36:33.062Z,81.04
2018-05-18T01:39:36.370Z,81.28
2018-05-18T01:42:39.680Z,81.36
2018-05-18T01:45:42.976Z,81.10
2018-05-18T01:48:46.298Z,81.07
2018-05-18T01:51:49.614Z,81.14
2018-05-18T01:54:52.925Z,81.21
2018-05-18T01:57:56.997Z,81.32
2018-05-18T02:01:00.326Z,81.40
2018-05-18T02:04:03.634Z,81.33
2018-05-18T02:07:07.720Z,81.50
2018-05-18T02:10:11.021Z,81.48
2018-05-18T02:13:14.338Z,81.37
2018-05-18T02:16:18.405Z,81.53
2018-05-18T02:19:21.713Z,81.92
2018-05-18T02:22:25.013Z,81.85
2018-05-18T02:25:28.334Z,81.90
2018-05-18T02:28:31.633Z,81.96
2018-05-18T02:31:35.722Z,82.09
2018-05-18T02:34:39.033Z,82.28
2018-05-18T02:37:42.359Z,82.32
2018-05-18T02:40:45.657Z,82.31
2018-05-18T02:43:48.974Z,82.26
2018-05-18T02:46:52.277Z,82.20
2018-05-18T02:49:55.604Z,82.40
2018-05-18T02:52:58.913Z,82.77
2018-05-18T02:56:03.037Z,82.77
2018-05-18T02:59:07.107Z,82.92
2018-05-18T03:02:10.421Z,82.99
2018-05-18T03:05:13.729Z,83.23
2018-05-18T03:08:17.045Z,83.33
2018-05-18T03:11:21.127Z,83.34
2018-05-18T03:14:24.458Z,83.45
2018-05-18T03:17:28.534Z,83.80
2018-05-18T03:20:31.861Z,83.94
2018-05-18T03:23:35.174Z,84.26
2018-05-18T03:26:38.504Z,84.41
2018-05-18T03:29:41.813Z,84.46
2018-05-18T03:32:45.126Z,84.59
2018-05-18T03:35:48.433Z,84.41
2018-05-18T03:38:51.749Z,84.46
2018-05-18T03:41:55.832Z,84.49
2018-05-18T03:44:59.124Z,84.30
2018-05-18T03:48:02.427Z,84.35
2018-05-18T03:51:05.726Z,84.37
2018-05-18T03:54:09.062Z,84.53
2018-05-18T03:57:12.357Z,84.77
2018-05-18T04:00:15.668Z,84.89
2018-05-18T04:03:36.805Z,85.02
2018-05-18T04:06:57.720Z,85.32
2018-05-18T04:10:01.033Z,85.61
2018-05-18T04:13:04.345Z,85.89
2018-05-18T04:16:07.652Z,85.95
2018-05-18T04:19:11.717Z,86.21
2018-05-18T04:22:15.024Z,86.57
2018-05-18T04:25:18.328Z,86.79
2018-05-18T04:28:21.637Z,86.83
2018-05-18T04:31:24.948Z,87.00
2018-05-18T04:34:29.013Z,87.23
2018-05-18T04:37:32.326Z,87.07
2018-05-18T04:40:35.626Z,87.04
2018-05-18T04:43:38.940Z,87.08
2018-05-18T04:46:42.257Z,87.09
2018-05-18T04:49:46.317Z,87.17
2018-05-18T04:52:49.625Z,87.19
2018-05-18T04:55:52.938Z,87.24
2018-05-18T04:58:56.285Z,86.97
2018-05-18T05:02:00.339Z,87.02
2018-05-18T05:05:03.624Z,86.96
2018-05-18T05:08:06.958Z,87.06
2018-05-18T05:11:11.038Z,87.32
2018-05-18T05:14:14.341Z,87.14
2018-05-18T05:17:17.657Z,87.04
2018-05-18T05:20:20.961Z,86.55
2018-05-18T05:23:25.058Z,86.51
2018-05-18T05:26:28.374Z,86.08
2018-05-18T05:29:32.448Z,85.28
2018-05-18T05:32:35.753Z,85.00
2018-05-18T05:35:39.073Z,85.32
2018-05-18T05:38:42.377Z,84.93
2018-05-18T05:41:46.471Z,84.95
2018-05-18T05:44:49.781Z,84.16
2018-05-18T05:47:53.174Z,83.80
2018-05-18T05:50:56.409Z,83.79
2018-05-18T05:53:59.724Z,82.60
2018-05-18T05:57:03.033Z,82.50
2018-05-18T06:00:06.357Z,82.38
2018-05-18T06:03:09.673Z,81.59
2018-05-18T06:06:13.764Z,82.16
2018-05-18T06:09:17.068Z,81.96
2018-05-18T06:12:20.458Z,80.60
2018-05-18T06:15:23.701Z,80.71
2018-05-18T06:18:27.013Z,79.19
2018-05-18T06:21:30.317Z,78.55
2018-05-18T06:24:33.649Z,78.36
2018-05-18T06:27:36.957Z,77.95
2018-05-18T06:30:40.269Z,78.12
2018-05-18T06:33:44.345Z,77.78
2018-05-18T06:36:47.663Z,76.10
2018-05-18T06:39:51.734Z,76.60
2018-05-18T06:42:55.112Z,75.21
2018-05-18T06:45:58.429Z,75.60
2018-05-18T06:49:01.737Z,74.93
2018-05-18T06:52:05.040Z,74.92
2018-05-18T06:55:08.352Z,73.77
2018-05-18T06:58:11.658Z,73.78
2018-05-18T07:01:15.742Z,73.63
2018-05-18T07:04:19.052Z,71.01
2018-05-18T07:07:22.381Z,73.89
2018-05-18T07:10:25.753Z,73.68
2018-05-18T07:13:29.028Z,71.86
2018-05-18T07:16:32.330Z,73.12
2018-05-18T07:19:36.441Z,71.27
2018-05-18T07:22:39.745Z,70.56
2018-05-18T07:25:43.065Z,71.25
2018-05-18T07:28:47.141Z,70.70
2018-05-18T07:31:50.467Z,70.91
2018-05-18T07:34:53.777Z,68.55
2018-05-18T07:37:57.122Z,70.49
2018-05-18T07:41:00.433Z,68.59
2018-05-18T07:44:03.744Z,69.38
2018-05-18T07:47:07.062Z,69.80
2018-05-18T07:50:11.174Z,68.71
2018-05-18T07:53:14.460Z,68.83
2018-05-18T07:56:17.790Z,67.28
2018-05-18T07:59:21.139Z,66.70
2018-05-18T08:02:24.439Z,66.65
2018-05-18T08:05:27.755Z,67.12
2018-05-18T08:08:31.877Z,68.63
2018-05-18T08:11:35.955Z,68.77
2018-05-18T08:14:39.287Z,67.21
2018-05-18T08:17:43.678Z,68.18
2018-05-18T08:20:46.722Z,68.68
2018-05-18T08:23:50.041Z,67.56
2018-05-18T08:27:11.142Z,67.15
2018-05-18T08:30:14.441Z,67.84
2018-05-18T08:33:17.770Z,66.75
2018-05-18T08:36:21.084Z,65.95
2018-05-18T08:39:24.404Z,65.57
2018-05-18T08:42:28.493Z,67.28
2018-05-18T08:45:31.818Z,66.00
2018-05-18T08:48:35.137Z,66.17
2018-05-18T08:51:38.441Z,66.63
2018-05-18T08:54:41.762Z,64.65
2018-05-18T08:57:45.090Z,66.40
2018-05-18T09:00:49.205Z,63.33
2018-05-18T09:03:53.290Z,65.98
2018-05-18T09:06:56.637Z,65.56
2018-05-18T09:09:59.940Z,65.26
2018-05-18T09:13:03.276Z,65.34
2018-05-18T09:16:06.591Z,64.54
2018-05-18T09:19:10.692Z,64.20
2018-05-18T09:22:14.007Z,65.05
2018-05-18T09:25:17.328Z,64.27
2018-05-18T09:28:20.642Z,63.42
2018-05-18T09:31:23.969Z,63.74
2018-05-18T09:34:27.279Z,64.78
2018-05-18T09:37:30.605Z,64.50
2018-05-18T09:40:33.933Z,65.02
2018-05-18T09:43:37.246Z,66.20
2018-05-18T09:46:40.565Z,66.18
2018-05-18T09:49:43.882Z,63.93
2018-05-18T09:52:47.970Z,63.23
2018-05-18T09:55:51.285Z,64.89
2018-05-18T09:58:54.618Z,64.53
2018-05-18T10:01:57.924Z,65.18
2018-05-18T10:05:01.248Z,63.72
2018-05-18T10:08:04.578Z,63.92
2018-05-18T10:11:07.896Z,63.86
2018-05-18T10:14:11.233Z,64.43
2018-05-18T10:17:14.532Z,64.21
2018-05-18T10:20:17.860Z,67.53
2018-05-18T10:23:21.187Z,64.40
2018-05-18T10:26:24.500Z,65.67
2018-05-18T10:29:27.817Z,64.29
2018-05-18T10:32:31.130Z,66.30
2018-05-18T10:35:34.449Z,64.40
2018-05-18T10:38:38.527Z,64.40
2018-05-18T10:41:41.852Z,63.84
2018-05-18T10:44:45.178Z,64.16
2018-05-18T10:47:48.489Z,64.99
2018-05-18T10:50:51.812Z,65.34
2018-05-18T10:53:55.140Z,63.75
2018-05-18T10:56:58.442Z,64.35
2018-05-18T11:00:02.534Z,65.98
2018-05-18T11:03:05.849Z,64.57
2018-05-18T11:06:09.274Z,63.96
2018-05-18T11:09:12.585Z,63.66
2018-05-18T11:12:15.909Z,63.17
2018-05-18T11:15:19.223Z,63.19
2018-05-18T11:18:22.536Z,64.75
2018-05-18T11:21:25.849Z,64.19
2018-05-18T11:24:29.939Z,64.50
2018-05-18T11:27:33.250Z,64.21
2018-05-18T11:30:37.335Z,64.52
2018-05-18T11:33:40.675Z,64.74
2018-05-18T11:36:44.749Z,65.31
2018-05-18T11:39:48.089Z,65.00
2018-05-18T11:42:51.393Z,64.66
2018-05-18T11:45:54.750Z,65.30
2018-05-18T11:48:58.067Z,64.29
2018-05-18T11:52:02.148Z,64.00
2018-05-18T11:55:05.466Z,64.92
2018-05-18T11:58:09.552Z,64.76
2018-05-18T12:01:12.864Z,64.99
2018-05-18T12:04:16.182Z,64.51
2018-05-18T12:07:20.276Z,64.76
2018-05-18T12:10:23.594Z,64.45
2018-05-18T12:13:27.674Z,64.57
2018-05-18T12:16:31.013Z,64.32
2018-05-18T12:19:35.094Z,64.49
2018-05-18T12:22:38.515Z,64.06
2018-05-18T12:25:42.593Z,64.00
2018-05-18T12:28:45.925Z,64.25
2018-05-18T12:31:49.244Z,64.26
2018-05-18T12:34:52.581Z,64.86
2018-05-18T12:37:55.890Z,66.05
2018-05-18T12:40:59.229Z,64.67
2018-05-18T12:44:03.297Z,64.95
2018-05-18T12:47:06.618Z,65.30
2018-05-18T12:50:09.929Z,64.91
2018-05-18T12:53:14.022Z,64.84
2018-05-18T12:56:17.329Z,65.35
2018-05-18T12:59:20.648Z,65.75
2018-05-18T13:02:23.965Z,65.78
2018-05-18T13:05:27.288Z,64.90
2018-05-18T13:08:30.601Z,64.53
2018-05-18T13:11:33.921Z,64.83
2018-05-18T13:14:38.010Z,65.29
2018-05-18T13:17:41.349Z,64.37
2018-05-18T13:20:44.662Z,64.43
2018-05-18T13:23:47.984Z,65.24
2018-05-18T13:26:51.285Z,65.96
2018-05-18T13:29:54.610Z,66.69
2018-05-18T13:32:57.936Z,66.12
2018-05-18T13:36:01.284Z,66.59
2018-05-18T13:39:04.606Z,66.54
2018-05-18T13:42:08.685Z,65.99
2018-05-18T13:45:12.008Z,65.46
2018-05-18T13:48:15.321Z,66.96
2018-05-18T13:51:19.419Z,65.15
2018-05-18T13:54:22.729Z,65.78
2018-05-18T13:57:26.814Z,65.09
2018-05-18T14:00:30.109Z,65.99
2018-05-18T14:03:33.427Z,65.95
2018-05-18T14:06:37.512Z,65.08
2018-05-18T14:09:40.815Z,65.66
2018-05-18T14:12:44.142Z,64.50
2018-05-18T14:15:48.217Z,64.69
2018-05-18T14:18:51.561Z,65.47
2018-05-18T14:21:54.865Z,64.16
2018-05-18T14:24:58.183Z,64.52
2018-05-18T14:28:01.481Z,64.79
2018-05-18T14:31:04.795Z,64.54
2018-05-18T14:34:08.106Z,63.82
2018-05-18T14:37:11.452Z,63.93
2018-05-18T14:40:14.764Z,64.75
2018-05-18T14:43:18.073Z,64.92
2018-05-18T14:46:21.373Z,63.17
2018-05-18T14:49:24.691Z,63.93
2018-05-18T14:52:28.034Z,64.56
2018-05-18T14:55:31.349Z,62.90
2018-05-18T14:58:34.692Z,62.18
2018-05-18T15:01:38.018Z,61.97
2018-05-18T15:04:42.110Z,63.01
2018-05-18T15:07:45.422Z,64.60
2018-05-18T15:10:49.527Z,64.66
2018-05-18T15:13:53.593Z,64.82
2018-05-18T15:16:56.976Z,64.05
2018-05-18T15:20:00.238Z,63.50
2018-05-18T15:23:04.304Z,63.99
2018-05-18T15:26:07.626Z,63.67
2018-05-18T15:29:10.937Z,62.99
2018-05-18T15:32:14.255Z,64.38
2018-05-18T15:35:17.562Z,63.97
2018-05-18T15:38:21.093Z,62.92
2018-05-18T15:41:24.427Z,61.93
2018-05-18T15:44:27.732Z,62.30
2018-05-18T15:47:31.809Z,62.35
2018-05-18T15:50:35.121Z,63.41
2018-05-18T15:53:38.505Z,62.71
2018-05-18T15:56:41.825Z,62.66
2018-05-18T15:59:45.140Z,63.03
2018-05-18T16:02:48.461Z,62.57
2018-05-18T16:05:51.777Z,62.30
2018-05-18T16:08:55.093Z,63.66
2018-05-18T16:11:58.417Z,64.96
2018-05-18T16:15:02.499Z,65.36
2018-05-18T16:18:05.821Z,65.95
2018-05-18T16:21:09.142Z,65.67
2018-05-18T16:24:13.226Z,65.71
2018-05-18T16:27:16.539Z,67.01
2018-05-18T16:30:21.408Z,66.92
2018-05-18T16:33:24.774Z,66.72
2018-05-18T16:36:28.083Z,67.44
2018-05-18T16:39:31.390Z,67.73
2018-05-18T16:42:34.711Z,68.88
2018-05-18T16:45:38.021Z,69.46
2018-05-18T16:48:41.347Z,69.78
2018-05-18T16:51:45.428Z,69.84
2018-05-18T16:54:48.775Z,70.04
2018-05-18T16:57:52.851Z,69.89
2018-05-18T17:00:56.170Z,69.98
2018-05-18T17:04:00.239Z,70.10
2018-05-18T17:07:03.574Z,70.25
2018-05-18T17:10:06.881Z,70.75
2018-05-18T17:13:10.966Z,71.53
2018-05-18T17:16:14.298Z,72.03
2018-05-18T17:19:17.596Z,72.36
2018-05-18T17:22:21.721Z,72.39
2018-05-18T17:25:25.031Z,72.94
2018-05-18T17:28:28.390Z,73.36
2018-05-18T17:31:31.698Z,73.43
2018-05-18T17:34:35.779Z,73.41
2018-05-18T17:37:39.107Z,74.16
2018-05-18T17:40:42.409Z,74.50
2018-05-18T17:43:46.497Z,74.35
2018-05-18T17:46:49.817Z,74.43
2018-05-18T17:49:53.169Z,74.40
2018-05-18T17:52:56.483Z,74.97
2018-05-18T17:55:59.823Z,75.09
2018-05-18T17:59:03.124Z,74.85
2018-05-18T18:02:06.442Z,74.90
2018-05-18T18:05:09.765Z,74.64
2018-05-18T18:08:13.118Z,74.59
2018-05-18T18:11:16.428Z,74.75
2018-05-18T18:14:19.777Z,74.79
2018-05-18T18:17:23.859Z,74.55
2018-05-18T18:20:28.030Z,74.96
2018-05-18T18:23:32.101Z,75.52
2018-05-18T18:26:35.448Z,75.76
2018-05-18T18:29:38.771Z,76.54
2018-05-18T18:32:42.107Z,75.86
2018-05-18T18:35:45.500Z,75.85
2018-05-18T18:38:49.615Z,76.18
2018-05-18T18:41:52.932Z,76.96
2018-05-18T18:44:57.054Z,77.20
2018-05-18T18:48:01.139Z,77.69
2018-05-18T18:51:04.462Z,77.56
2018-05-18T18:54:08.556Z,77.56
2018-05-18T18:57:11.879Z,77.53
2018-05-18T19:00:15.961Z,77.56
2018-05-18T19:03:19.318Z,77.94
2018-05-18T19:06:22.631Z,78.00
2018-05-18T19:09:25.970Z,78.33
2018-05-18T19:12:30.053Z,78.31
2018-05-18T19:15:33.449Z,78.71
2018-05-18T19:18:36.767Z,78.56
2018-05-18T19:21:40.105Z,78.74
2018-05-18T19:24:43.414Z,79.30
2018-05-18T19:27:46.762Z,79.50
2018-05-18T19:30:50.073Z,79.47
2018-05-18T19:33:54.158Z,79.58
2018-05-18T19:36:57.485Z,79.75
2018-05-18T19:40:01.690Z,79.94
2018-05-18T19:43:05.017Z,79.74
2018-05-18T19:46:08.353Z,79.47
2018-05-18T19:49:11.649Z,79.77
2018-05-18T19:52:14.985Z,80.01
2018-05-18T19:55:19.078Z,79.55
2018-05-18T19:58:22.402Z,79.57
2018-05-18T20:01:25.720Z,79.81
2018-05-18T20:04:29.091Z,79.95
2018-05-18T20:07:33.166Z,80.19
2018-05-18T20:10:36.748Z,80.27
2018-05-18T20:13:40.071Z,80.73
2018-05-18T20:16:43.398Z,80.66
2018-05-18T20:19:46.746Z,80.56
2018-05-18T20:22:50.048Z,80.72
2018-05-18T20:25:53.360Z,80.63
2018-05-18T20:28:56.681Z,80.65
2018-05-18T20:31:59.985Z,81.04
2018-05-18T20:35:04.082Z,80.75
2018-05-18T20:38:07.412Z,80.58
2018-05-18T20:41:11.493Z,80.53
2018-05-18T20:44:14.798Z,80.70
2018-05-18T20:47:18.129Z,80.84
2018-05-18T20:50:21.441Z,80.92
2018-05-18T20:53:24.777Z,81.22
2018-05-18T20:56:28.089Z,81.51
2018-05-18T20:59:31.406Z,80.91
2018-05-18T21:02:35.489Z,81.10
2018-05-18T21:05:38.842Z,81.08
2018-05-18T21:08:42.137Z,81.45
2018-05-18T21:11:45.461Z,81.71
2018-05-18T21:14:48.778Z,81.90
2018-05-18T21:17:52.117Z,82.14
2018-05-18T21:20:55.424Z,82.01
2018-05-18T21:23:58.778Z,82.07
2018-05-18T21:27:02.085Z,81.89
2018-05-18T21:30:06.181Z,81.57
2018-05-18T21:33:09.500Z,81.62
2018-05-18T21:36:12.808Z,81.67
2018-05-18T21:39:16.890Z,81.71
2018-05-18T21:42:20.194Z,81.67
2018-05-18T21:45:24.285Z,81.63
2018-05-18T21:48:27.594Z,81.73
2018-05-18T21:51:30.917Z,81.74
2018-05-18T21:54:35.005Z,81.85
2018-05-18T21:57:38.341Z,81.93
2018-05-18T22:00:41.645Z,81.88
2018-05-18T22:03:44.965Z,81.72
2018-05-18T22:06:48.266Z,81.93
2018-05-18T22:09:51.582Z,82.05
2018-05-18T22:12:54.902Z,82.02
2018-05-18T22:15:59.014Z,82.07
2018-05-18T22:19:03.090Z,82.52
2018-05-18T22:22:06.420Z,82.70
2018-05-18T22:25:09.739Z,82.43
2018-05-18T22:28:13.062Z,82.19
2018-05-18T22:31:16.403Z,82.32
2018-05-18T22:34:19.713Z,82.52
2018-05-18T22:37:23.808Z,82.70
2018-05-18T22:40:27.129Z,82.65
2018-05-18T22:43:31.210Z,82.99
2018-05-18T22:46:34.521Z,82.96
2018-05-18T22:49:37.853Z,82.78
2018-05-18T22:52:41.178Z,82.67
2018-05-18T22:55:44.510Z,82.92
2018-05-18T22:58:47.823Z,82.90
2018-05-18T23:01:51.938Z,83.22
2018-05-18T23:04:55.250Z,83.29
2018-05-18T23:07:58.574Z,83.08
2018-05-18T23:11:01.883Z,83.05
2018-05-18T23:14:05.203Z,83.46
2018-05-18T23:17:08.522Z,83.51
2018-05-18T23:20:12.634Z,83.41
2018-05-18T23:23:15.942Z,83.29
2018-05-18T23:26:20.031Z,83.54
2018-05-18T23:29:23.349Z,83.35
2018-05-18T23:32:27.428Z,83.53
2018-05-18T23:35:30.745Z,83.50
2018-05-18T23:38:34.061Z,83.39
2018-05-18T23:41:38.158Z,83.43
2018-05-18T23:44:41.487Z,83.26
2018-05-18T23:47:44.801Z,83.44
2018-05-18T23:50:48.113Z,83.48
2018-05-18T23:53:51.424Z,83.22
2018-05-18T23:56:54.749Z,82.91
2018-05-18T23:59:58.826Z,82.85
